createdAt,value
2023-05-10T00:01:23.582Z,63.28
2023-05-10T00:03:54.800Z,63.48
2023-05-10T00:06:26.925Z,63.58
2023-05-10T00:08:58.467Z,63.77
2023-05-10T00:11:30.133Z,63.94
2023-05-10T00:14:01.327Z,64.08
2023-05-10T00:16:33.028Z,64.13
2023-05-10T00:19:04.493Z,64.12
2023-05-10T00:21:36.324Z,63.93
2023-05-10T00:24:08.504Z,63.76
2023-05-10T00:26:40.076Z,63.75
2023-05-10T00:29:11.535Z,63.55
2023-05-10T00:31:42.992Z,63.56
2023-05-10T00:34:15.214Z,63.57
2023-05-10T00:36:46.674Z,63.59
2023-05-10T00:39:18.051Z,63.51
2023-05-10T00:41:49.954Z,63.50
2023-05-10T00:44:21.741Z,63.42
2023-05-10T00:46:53.691Z,63.45
2023-05-10T00:49:25.614Z,63.47
2023-05-10T00:51:57.208Z,63.69
2023-05-10T00:54:29.167Z,63.58
2023-05-10T00:57:00.658Z,63.57
2023-05-10T00:59:33.000Z,63.44
2023-05-10T01:02:04.969Z,63.43
2023-05-10T01:04:37.592Z,63.21
2023-05-10T01:07:09.334Z,63.07
2023-05-10T01:09:41.248Z,63.11
2023-05-10T01:12:13.328Z,62.95
2023-05-10T01:14:45.689Z,63.04
2023-05-10T01:17:18.455Z,63.13
2023-05-10T01:19:50.275Z,63.09
2023-05-10T01:22:59.725Z,63.00
2023-05-10T01:25:50.975Z,62.98
2023-05-10T01:28:48.507Z,62.73
2023-05-10T01:31:42.738Z,62.59
2023-05-10T01:34:19.572Z,62.55
2023-05-10T01:36:54.757Z,62.52
2023-05-10T01:39:35.050Z,62.67
2023-05-10T01:42:11.053Z,62.66
2023-05-10T01:44:48.990Z,62.72
2023-05-10T01:47:28.063Z,62.97
2023-05-10T01:50:03.976Z,62.98
2023-05-10T01:52:40.677Z,63.20
2023-05-10T01:55:15.625Z,63.20
2023-05-10T01:57:50.341Z,63.28
2023-05-10T02:00:23.539Z,63.22
2023-05-10T02:02:58.258Z,63.35
2023-05-10T02:05:31.640Z,63.33
2023-05-10T02:08:05.591Z,63.37
2023-05-10T02:10:39.258Z,63.36
2023-05-10T02:13:12.680Z,63.39
2023-05-10T02:15:46.238Z,63.45
2023-05-10T02:18:18.176Z,63.36
2023-05-10T02:20:50.457Z,63.53
2023-05-10T02:23:24.099Z,63.65
2023-05-10T02:25:56.382Z,63.79
2023-05-10T02:28:29.184Z,63.71
2023-05-10T02:31:00.919Z,63.75
2023-05-10T02:33:35.207Z,63.76
2023-05-10T02:36:09.290Z,63.77
2023-05-10T02:38:42.640Z,63.76
2023-05-10T02:41:15.135Z,63.78
2023-05-10T02:43:48.519Z,63.70
2023-05-10T02:46:20.130Z,63.82
2023-05-10T02:48:51.434Z,63.88
2023-05-10T02:51:26.557Z,63.88
2023-05-10T02:53:59.665Z,63.96
2023-05-10T02:56:35.482Z,63.82
2023-05-10T02:59:07.350Z,63.69
2023-05-10T03:01:38.980Z,63.61
2023-05-10T03:04:11.788Z,63.63
2023-05-10T03:06:44.375Z,63.55
2023-05-10T03:09:17.349Z,63.49
2023-05-10T03:11:59.052Z,63.44
2023-05-10T03:14:41.896Z,63.13
2023-05-10T03:17:18.197Z,63.13
2023-05-10T03:19:55.383Z,63.08
2023-05-10T03:22:33.124Z,63.17
2023-05-10T03:25:07.964Z,63.16
2023-05-10T03:27:42.304Z,63.15
2023-05-10T03:30:16.023Z,63.27
2023-05-10T03:32:47.950Z,63.31
2023-05-10T03:35:21.145Z,63.34
2023-05-10T03:37:52.289Z,63.32
2023-05-10T03:40:24.395Z,63.32
2023-05-10T03:42:55.773Z,63.41
2023-05-10T03:45:27.528Z,63.44
2023-05-10T03:47:59.266Z,63.40
2023-05-10T03:50:30.963Z,63.44
2023-05-10T03:53:03.309Z,63.44
2023-05-10T03:55:37.673Z,63.43
2023-05-10T03:58:09.389Z,63.57
2023-05-10T04:00:44.908Z,63.44
2023-05-10T04:03:18.333Z,63.38
2023-05-10T04:05:49.870Z,63.31
2023-05-10T04:08:21.459Z,63.33
2023-05-10T04:10:52.776Z,63.25
2023-05-10T04:13:25.057Z,63.25
2023-05-10T04:15:56.653Z,63.33
2023-05-10T04:18:28.615Z,63.29
2023-05-10T04:21:00.096Z,63.21
2023-05-10T04:23:31.924Z,63.17
2023-05-10T04:26:06.457Z,63.40
2023-05-10T04:28:37.608Z,63.74
2023-05-10T04:31:10.525Z,63.23
2023-05-10T04:33:42.470Z,63.19
2023-05-10T04:36:14.997Z,63.08
2023-05-10T04:38:46.482Z,62.94
2023-05-10T04:41:17.604Z,62.68
2023-05-10T04:43:50.166Z,62.82
2023-05-10T04:46:21.605Z,62.75
2023-05-10T04:48:53.019Z,62.75
2023-05-10T04:51:24.229Z,62.64
2023-05-10T04:54:05.247Z,62.79
2023-05-10T04:56:38.601Z,62.57
2023-05-10T04:59:10.199Z,62.78
2023-05-10T05:01:41.935Z,62.69
2023-05-10T05:04:13.369Z,62.55
2023-05-10T05:06:44.699Z,62.49
2023-05-10T05:09:16.470Z,62.58
2023-05-10T05:11:48.161Z,62.62
2023-05-10T05:14:22.161Z,62.64
2023-05-10T05:16:53.405Z,62.57
2023-05-10T05:19:25.038Z,62.41
2023-05-10T05:21:57.379Z,62.12
2023-05-10T05:24:28.671Z,62.23
2023-05-10T05:27:00.399Z,62.03
2023-05-10T05:29:32.016Z,62.17
2023-05-10T05:32:03.764Z,62.06
2023-05-10T05:34:35.611Z,61.91
2023-05-10T05:37:07.076Z,61.98
2023-05-10T05:39:40.002Z,61.74
2023-05-10T05:42:12.143Z,61.92
2023-05-10T05:44:43.706Z,61.81
2023-05-10T05:47:15.487Z,61.98
2023-05-10T05:49:47.589Z,61.76
2023-05-10T05:52:19.244Z,61.84
2023-05-10T05:54:50.577Z,62.31
2023-05-10T05:57:22.162Z,62.35
2023-05-10T05:59:53.779Z,62.51
2023-05-10T06:02:25.538Z,62.05
2023-05-10T06:04:56.922Z,62.12
2023-05-10T06:07:28.483Z,62.28
2023-05-10T06:09:59.710Z,62.27
2023-05-10T06:12:31.568Z,61.26
2023-05-10T06:15:03.337Z,60.50
2023-05-10T06:17:34.896Z,59.80
2023-05-10T06:20:07.074Z,59.20
2023-05-10T06:22:38.449Z,58.58
2023-05-10T06:25:11.665Z,57.95
2023-05-10T06:27:43.302Z,57.60
2023-05-10T06:30:16.755Z,57.56
2023-05-10T06:32:48.366Z,57.03
2023-05-10T06:35:20.840Z,56.84
2023-05-10T06:37:52.430Z,56.28
2023-05-10T06:40:23.799Z,56.54
2023-05-10T06:42:55.066Z,56.13
2023-05-10T06:45:26.412Z,56.04
2023-05-10T06:47:58.355Z,55.80
2023-05-10T06:50:29.858Z,55.47
2023-05-10T06:53:01.691Z,55.36
2023-05-10T06:55:33.482Z,54.91
2023-05-10T06:58:04.884Z,54.48
2023-05-10T07:00:40.291Z,54.82
2023-05-10T07:03:12.071Z,54.65
2023-05-10T07:05:44.267Z,54.33
2023-05-10T07:08:15.930Z,53.92
2023-05-10T07:10:48.109Z,53.71
2023-05-10T07:13:19.303Z,53.33
2023-05-10T07:15:51.068Z,53.75
2023-05-10T07:18:22.560Z,53.53
2023-05-10T07:20:54.140Z,53.35
2023-05-10T07:23:25.475Z,53.31
2023-05-10T07:25:58.520Z,52.74
2023-05-10T07:28:29.978Z,52.15
2023-05-10T07:31:01.903Z,52.57
2023-05-10T07:33:33.402Z,52.56
2023-05-10T07:36:04.816Z,51.95
2023-05-10T07:38:37.481Z,51.62
2023-05-10T07:41:09.767Z,51.38
2023-05-10T07:43:41.127Z,51.54
2023-05-10T07:46:12.534Z,51.50
2023-05-10T07:48:44.097Z,51.20
2023-05-10T07:51:15.690Z,50.95
2023-05-10T07:53:47.150Z,50.63
2023-05-10T07:56:30.764Z,50.34
2023-05-10T07:59:02.486Z,50.33
2023-05-10T08:01:36.837Z,50.12
2023-05-10T08:04:08.711Z,49.69
2023-05-10T08:06:40.419Z,49.57
2023-05-10T08:09:12.302Z,49.77
2023-05-10T08:11:43.922Z,49.32
2023-05-10T08:14:15.235Z,49.07
2023-05-10T08:16:46.579Z,49.01
2023-05-10T08:19:20.082Z,49.09
2023-05-10T08:21:52.068Z,49.10
2023-05-10T08:24:23.501Z,48.50
2023-05-10T08:26:55.050Z,48.21
2023-05-10T08:29:28.278Z,47.92
2023-05-10T08:32:00.505Z,47.96
2023-05-10T08:34:32.602Z,47.55
2023-05-10T08:37:04.125Z,47.25
2023-05-10T08:39:39.435Z,47.14
2023-05-10T08:42:11.811Z,47.04
2023-05-10T08:44:44.144Z,47.01
2023-05-10T08:47:17.856Z,47.13
2023-05-10T08:49:52.269Z,46.92
2023-05-10T08:52:25.018Z,46.32
2023-05-10T08:54:56.394Z,46.46
2023-05-10T08:57:28.298Z,46.47
2023-05-10T09:00:00.399Z,46.16
2023-05-10T09:02:32.192Z,45.93
2023-05-10T09:05:04.147Z,46.14
2023-05-10T09:07:36.403Z,46.14
2023-05-10T09:10:10.610Z,46.22
2023-05-10T09:12:42.843Z,45.69
2023-05-10T09:15:17.371Z,45.45
2023-05-10T09:17:49.943Z,44.84
2023-05-10T09:20:21.533Z,44.88
2023-05-10T09:22:53.092Z,44.57
2023-05-10T09:25:24.560Z,44.30
2023-05-10T09:27:57.323Z,44.33
2023-05-10T09:30:30.780Z,44.11
2023-05-10T09:33:03.935Z,44.52
2023-05-10T09:35:37.253Z,44.27
2023-05-10T09:38:09.304Z,43.90
2023-05-10T09:40:40.826Z,43.84
2023-05-10T09:43:12.997Z,43.74
2023-05-10T09:45:45.189Z,43.41
2023-05-10T09:48:16.650Z,43.13
2023-05-10T09:50:48.072Z,43.04
2023-05-10T09:53:20.173Z,43.02
2023-05-10T09:55:52.097Z,42.81
2023-05-10T09:58:23.495Z,42.43
2023-05-10T10:00:56.164Z,42.29
2023-05-10T10:03:28.951Z,42.41
2023-05-10T10:06:01.666Z,42.19
2023-05-10T10:08:33.357Z,42.00
2023-05-10T10:11:05.006Z,41.78
2023-05-10T10:13:36.868Z,41.68
2023-05-10T10:16:11.078Z,41.65
2023-05-10T10:18:43.084Z,41.54
2023-05-10T10:21:16.036Z,41.34
2023-05-10T10:23:48.381Z,40.91
2023-05-10T10:26:22.221Z,40.94
2023-05-10T10:29:06.578Z,40.77
2023-05-10T10:31:43.191Z,40.86
2023-05-10T10:34:25.197Z,40.74
2023-05-10T10:36:57.505Z,40.65
2023-05-10T10:39:29.313Z,40.15
2023-05-10T10:42:01.655Z,40.42
2023-05-10T10:44:41.750Z,40.25
2023-05-10T10:47:30.028Z,40.03
2023-05-10T10:50:14.079Z,40.15
2023-05-10T10:52:46.807Z,39.82
2023-05-10T10:55:20.318Z,39.76
2023-05-10T10:57:55.853Z,39.62
2023-05-10T11:00:32.867Z,39.61
2023-05-10T11:03:14.520Z,39.36
2023-05-10T11:05:47.358Z,39.31
2023-05-10T11:08:22.068Z,39.34
2023-05-10T11:11:09.744Z,39.26
2023-05-10T11:13:44.781Z,39.05
2023-05-10T11:16:19.217Z,38.86
2023-05-10T11:19:05.979Z,38.64
2023-05-10T11:21:47.841Z,38.54
2023-05-10T11:24:21.472Z,38.61
2023-05-10T11:26:54.034Z,38.45
2023-05-10T11:29:27.494Z,38.47
2023-05-10T11:32:01.817Z,38.13
2023-05-10T11:34:34.830Z,38.16
2023-05-10T11:37:06.622Z,37.96
2023-05-10T11:39:37.886Z,38.06
2023-05-10T11:42:11.128Z,37.90
2023-05-10T11:44:44.491Z,37.70
2023-05-10T11:47:16.030Z,37.25
2023-05-10T11:49:49.219Z,37.95
2023-05-10T11:52:22.726Z,37.19
2023-05-10T11:54:57.258Z,36.60
2023-05-10T11:57:32.473Z,36.49
2023-05-10T12:00:05.067Z,36.87
2023-05-10T12:02:40.023Z,36.95
2023-05-10T12:05:13.173Z,36.59
2023-05-10T12:07:44.429Z,36.06
2023-05-10T12:10:18.624Z,36.69
2023-05-10T12:12:54.383Z,36.60
2023-05-10T12:15:26.989Z,36.68
2023-05-10T12:17:59.179Z,36.21
2023-05-10T12:20:32.139Z,36.13
2023-05-10T12:23:04.633Z,36.28
2023-05-10T12:25:37.922Z,36.56
2023-05-10T12:28:10.920Z,36.61
2023-05-10T12:30:42.848Z,35.99
2023-05-10T12:33:17.749Z,35.50
2023-05-10T12:35:51.466Z,35.56
2023-05-10T12:38:31.996Z,35.22
2023-05-10T12:41:05.024Z,35.21
2023-05-10T12:43:37.066Z,35.43
2023-05-10T12:46:12.829Z,35.27
2023-05-10T12:48:46.448Z,35.34
2023-05-10T12:51:20.573Z,35.47
2023-05-10T12:53:51.916Z,35.67
2023-05-10T12:56:23.102Z,35.25
2023-05-10T12:58:55.070Z,35.19
2023-05-10T13:01:26.995Z,35.46
2023-05-10T13:03:58.139Z,35.57
2023-05-10T13:06:29.613Z,35.09
2023-05-10T13:09:01.173Z,35.13
2023-05-10T13:11:32.863Z,35.08
2023-05-10T13:14:04.781Z,36.19
2023-05-10T13:16:36.842Z,38.10
2023-05-10T13:19:08.081Z,39.35
2023-05-10T13:21:39.734Z,40.26
2023-05-10T13:24:12.099Z,40.30
2023-05-10T13:26:43.657Z,40.80
2023-05-10T13:29:14.911Z,42.31
2023-05-10T13:31:47.753Z,43.59
2023-05-10T13:34:21.630Z,45.09
2023-05-10T13:36:54.036Z,44.92
2023-05-10T13:39:26.066Z,45.90
2023-05-10T13:41:57.605Z,45.52
2023-05-10T13:44:29.103Z,44.56
2023-05-10T13:47:01.163Z,46.01
2023-05-10T13:49:33.369Z,45.84
2023-05-10T13:52:07.851Z,46.74
2023-05-10T13:54:39.710Z,48.04
2023-05-10T13:57:13.825Z,48.85
2023-05-10T13:59:45.917Z,50.30
2023-05-10T14:02:17.099Z,51.04
2023-05-10T14:04:49.328Z,52.61
2023-05-10T14:07:21.481Z,51.44
2023-05-10T14:09:53.073Z,51.32
2023-05-10T14:12:24.459Z,51.75
2023-05-10T14:14:59.331Z,52.27
2023-05-10T14:17:31.108Z,52.17
2023-05-10T14:20:03.811Z,53.75
2023-05-10T14:22:35.192Z,54.22
2023-05-10T14:25:07.835Z,54.17
2023-05-10T14:27:39.076Z,54.23
2023-05-10T14:30:12.959Z,54.06
2023-05-10T14:32:44.862Z,55.09
2023-05-10T14:35:19.379Z,55.38
2023-05-10T14:37:51.234Z,55.80
2023-05-10T14:40:22.769Z,55.25
2023-05-10T14:42:55.355Z,56.31
2023-05-10T14:45:26.966Z,56.12
2023-05-10T14:47:58.489Z,56.71
2023-05-10T14:50:35.829Z,56.81
2023-05-10T14:53:07.609Z,55.23
2023-05-10T14:55:40.005Z,56.55
2023-05-10T14:58:11.544Z,56.47
2023-05-10T15:00:43.166Z,55.82
2023-05-10T15:03:16.093Z,55.79
2023-05-10T15:05:48.793Z,55.80
2023-05-10T15:08:20.102Z,54.96
2023-05-10T15:10:51.551Z,54.69
2023-05-10T15:13:23.142Z,54.42
2023-05-10T15:15:54.412Z,54.37
2023-05-10T15:18:25.956Z,53.87
2023-05-10T15:20:57.857Z,53.53
2023-05-10T15:23:29.882Z,53.29
2023-05-10T15:26:01.245Z,53.09
2023-05-10T15:28:34.286Z,52.89
2023-05-10T15:31:06.109Z,52.66
2023-05-10T15:33:38.948Z,52.46
2023-05-10T15:36:10.837Z,52.60
2023-05-10T15:38:42.199Z,52.74
2023-05-10T15:41:13.309Z,52.71
2023-05-10T15:43:44.824Z,52.49
2023-05-10T15:46:16.086Z,51.87
2023-05-10T15:48:47.769Z,51.57
2023-05-10T15:51:19.863Z,51.57
2023-05-10T15:54:05.773Z,51.02
2023-05-10T15:56:38.256Z,50.53
2023-05-10T15:59:11.071Z,50.64
2023-05-10T16:01:42.766Z,49.66
2023-05-10T16:04:14.764Z,49.15
2023-05-10T16:06:46.450Z,48.80
2023-05-10T16:09:18.111Z,48.63
2023-05-10T16:11:49.796Z,48.54
2023-05-10T16:14:23.206Z,48.24
2023-05-10T16:16:54.851Z,48.61
2023-05-10T16:19:27.765Z,48.97
2023-05-10T16:22:01.500Z,49.11
2023-05-10T16:24:33.112Z,48.89
2023-05-10T16:27:04.839Z,49.02
2023-05-10T16:29:36.192Z,49.53
2023-05-10T16:32:08.094Z,49.65
2023-05-10T16:34:40.142Z,49.78
2023-05-10T16:37:11.913Z,49.76
2023-05-10T16:39:43.526Z,49.73
2023-05-10T16:42:16.245Z,49.55
2023-05-10T16:44:47.999Z,49.20
2023-05-10T16:47:20.004Z,48.88
2023-05-10T16:49:51.185Z,48.52
2023-05-10T16:52:22.387Z,48.38
2023-05-10T16:54:55.446Z,48.28
2023-05-10T16:57:27.260Z,47.89
2023-05-10T16:59:58.892Z,47.76
2023-05-10T17:02:30.477Z,47.64
2023-05-10T17:05:01.966Z,47.46
2023-05-10T17:07:33.353Z,47.20
2023-05-10T17:10:04.514Z,47.02
2023-05-10T17:12:36.260Z,46.94
2023-05-10T17:15:09.212Z,46.81
2023-05-10T17:17:40.939Z,46.91
2023-05-10T17:20:13.802Z,46.91
2023-05-10T17:22:45.150Z,46.79
2023-05-10T17:25:16.848Z,46.55
2023-05-10T17:27:48.655Z,46.51
2023-05-10T17:30:26.255Z,47.09
2023-05-10T17:32:57.454Z,47.62
2023-05-10T17:35:30.712Z,47.48
2023-05-10T17:38:02.152Z,47.40
2023-05-10T17:40:33.698Z,47.57
2023-05-10T17:43:05.963Z,47.56
2023-05-10T17:45:37.666Z,47.36
2023-05-10T17:48:11.542Z,47.58
2023-05-10T17:50:46.052Z,47.71
2023-05-10T17:53:17.285Z,47.65
2023-05-10T17:55:48.810Z,47.45
2023-05-10T17:58:20.319Z,47.66
2023-05-10T18:00:51.311Z,47.73
2023-05-10T18:03:22.835Z,47.61
2023-05-10T18:05:55.491Z,47.49
2023-05-10T18:08:28.874Z,47.47
2023-05-10T18:11:00.735Z,47.40
2023-05-10T18:13:32.381Z,47.55
2023-05-10T18:16:05.066Z,47.71
2023-05-10T18:18:37.236Z,48.15
2023-05-10T18:21:08.975Z,48.70
2023-05-10T18:23:40.442Z,48.89
2023-05-10T18:26:12.143Z,49.00
2023-05-10T18:28:43.593Z,49.06
2023-05-10T18:31:15.066Z,49.22
2023-05-10T18:33:46.945Z,49.35
2023-05-10T18:36:19.384Z,49.41
2023-05-10T18:38:51.224Z,49.53
2023-05-10T18:41:22.588Z,49.04
2023-05-10T18:43:54.004Z,48.68
2023-05-10T18:46:25.705Z,48.47
2023-05-10T18:48:57.284Z,48.49
2023-05-10T18:51:29.864Z,48.40
2023-05-10T18:54:01.234Z,48.63
2023-05-10T18:56:32.488Z,49.07
2023-05-10T18:59:04.052Z,49.27
2023-05-10T19:01:35.858Z,49.38
2023-05-10T19:04:08.738Z,49.41
2023-05-10T19:06:42.081Z,48.79
2023-05-10T19:09:15.825Z,48.42
2023-05-10T19:11:47.636Z,48.34
2023-05-10T19:14:20.188Z,48.07
2023-05-10T19:16:54.815Z,47.34
2023-05-10T19:19:28.022Z,47.06
2023-05-10T19:22:01.339Z,46.66
2023-05-10T19:24:38.258Z,46.52
2023-05-10T19:27:11.050Z,46.51
2023-05-10T19:29:43.873Z,46.67
2023-05-10T19:32:17.477Z,46.53
2023-05-10T19:34:49.155Z,46.33
2023-05-10T19:37:24.145Z,46.40
2023-05-10T19:39:57.879Z,46.71
2023-05-10T19:42:32.590Z,47.11
2023-05-10T19:45:04.565Z,47.45
2023-05-10T19:47:37.391Z,47.30
2023-05-10T19:50:17.433Z,47.33
2023-05-10T19:52:49.631Z,47.32
2023-05-10T19:55:30.512Z,47.47
2023-05-10T19:58:03.336Z,47.54
2023-05-10T20:00:35.700Z,47.74
2023-05-10T20:03:10.962Z,47.70
2023-05-10T20:05:42.915Z,47.94
2023-05-10T20:08:16.962Z,48.12
2023-05-10T20:10:52.334Z,48.04
2023-05-10T20:13:26.026Z,48.08
2023-05-10T20:16:04.668Z,48.26
2023-05-10T20:18:39.192Z,48.36
2023-05-10T20:21:13.423Z,48.64
2023-05-10T20:23:45.176Z,49.07
2023-05-10T20:26:17.673Z,49.93
2023-05-10T20:28:51.098Z,50.50
2023-05-10T20:31:25.614Z,50.85
2023-05-10T20:33:59.358Z,50.87
2023-05-10T20:36:33.764Z,50.42
2023-05-10T20:39:07.414Z,50.09
2023-05-10T20:41:39.255Z,50.00
2023-05-10T20:44:12.874Z,49.61
2023-05-10T20:46:45.160Z,49.59
2023-05-10T20:49:17.779Z,49.80
2023-05-10T20:51:49.260Z,49.72
2023-05-10T20:54:22.462Z,49.55
2023-05-10T20:56:54.532Z,49.48
2023-05-10T20:59:26.191Z,49.46
2023-05-10T21:01:58.047Z,49.43
2023-05-10T21:04:29.936Z,49.21
2023-05-10T21:07:01.046Z,49.13
2023-05-10T21:09:32.568Z,49.19
2023-05-10T21:12:04.279Z,49.02
2023-05-10T21:14:35.863Z,49.09
2023-05-10T21:17:07.404Z,49.01
2023-05-10T21:19:38.717Z,49.07
2023-05-10T21:22:10.056Z,48.97
2023-05-10T21:24:41.522Z,49.08
2023-05-10T21:27:13.311Z,48.92
2023-05-10T21:29:45.107Z,48.98
2023-05-10T21:32:16.283Z,48.81
2023-05-10T21:34:47.609Z,48.86
2023-05-10T21:37:19.653Z,48.91
2023-05-10T21:39:52.946Z,49.03
2023-05-10T21:42:24.388Z,48.91
2023-05-10T21:44:55.983Z,48.83
2023-05-10T21:47:27.712Z,49.25
2023-05-10T21:50:00.253Z,49.17
2023-05-10T21:52:31.965Z,49.07
2023-05-10T21:55:03.642Z,49.20
2023-05-10T21:57:35.320Z,49.32
2023-05-10T22:00:09.085Z,49.38
2023-05-10T22:02:41.074Z,49.51
2023-05-10T22:05:13.242Z,49.51
2023-05-10T22:07:44.792Z,49.58
2023-05-10T22:10:16.685Z,49.57
2023-05-10T22:12:48.446Z,49.43
2023-05-10T22:15:20.184Z,49.58
2023-05-10T22:17:51.685Z,49.51
2023-05-10T22:20:23.214Z,49.48
2023-05-10T22:22:54.970Z,49.43
2023-05-10T22:25:26.486Z,49.45
2023-05-10T22:27:57.756Z,49.42
2023-05-10T22:30:30.458Z,49.40
2023-05-10T22:33:03.738Z,49.49
2023-05-10T22:35:36.121Z,49.38
2023-05-10T22:38:07.130Z,49.43
2023-05-10T22:40:38.284Z,49.35
2023-05-10T22:43:09.565Z,49.38
2023-05-10T22:45:41.385Z,49.44
2023-05-10T22:48:13.302Z,49.53
2023-05-10T22:50:44.574Z,49.39
2023-05-10T22:53:15.799Z,49.45
2023-05-10T22:55:47.582Z,49.47
2023-05-10T22:58:19.256Z,49.47
2023-05-10T23:00:50.395Z,49.36
2023-05-10T23:03:22.054Z,49.32
2023-05-10T23:05:53.083Z,49.32
2023-05-10T23:08:24.637Z,49.28
2023-05-10T23:10:55.936Z,49.19
2023-05-10T23:13:27.314Z,49.23
2023-05-10T23:16:01.876Z,49.08
2023-05-10T23:18:33.688Z,49.03
2023-05-10T23:21:05.594Z,49.13
2023-05-10T23:23:37.514Z,48.77
2023-05-10T23:26:09.539Z,48.66
2023-05-10T23:28:41.179Z,48.62
2023-05-10T23:31:12.830Z,48.39
2023-05-10T23:33:44.386Z,47.96
2023-05-10T23:36:15.741Z,47.85
2023-05-10T23:38:47.240Z,47.39
2023-05-10T23:41:18.640Z,47.01
2023-05-10T23:43:49.898Z,46.73
2023-05-10T23:46:21.764Z,46.67
2023-05-10T23:48:52.962Z,46.71
2023-05-10T23:51:24.922Z,46.65
2023-05-10T23:53:56.421Z,46.79
2023-05-10T23:56:27.969Z,47.05
2023-05-10T23:58:59.307Z,47.45
